createdAt,value
2022-11-16T00:00:02.820Z,23.10
2022-11-16T00:02:55.668Z,24.80
2022-11-16T00:05:30.555Z,17.10
2022-11-16T00:07:59.858Z,20.20
2022-11-16T00:10:33.199Z,19.50
2022-11-16T00:13:01.686Z,18.40
2022-11-16T00:15:30.206Z,26.50
2022-11-16T00:17:58.787Z,20.30
2022-11-16T00:20:27.527Z,21.80
2022-11-16T00:22:55.950Z,23.80
2022-11-16T00:25:24.417Z,21.60
2022-11-16T00:27:52.848Z,20.90
2022-11-16T00:30:21.663Z,21.50
2022-11-16T00:32:51.376Z,21.90
2022-11-16T00:35:19.700Z,20.60
2022-11-16T00:37:51.357Z,24.50
2022-11-16T00:40:21.156Z,24.80
2022-11-16T00:42:51.266Z,20.40
2022-11-16T00:45:21.324Z,24.20
2022-11-16T00:47:59.160Z,21.70
2022-11-16T00:50:29.190Z,19.30
2022-11-16T00:52:58.375Z,21.70
2022-11-16T00:55:26.900Z,22.60
2022-11-16T00:57:55.548Z,26.00
2022-11-16T01:00:25.465Z,19.30
2022-11-16T01:02:54.092Z,17.20
2022-11-16T01:05:23.296Z,15.70
2022-11-16T01:07:53.254Z,21.30
2022-11-16T01:10:26.214Z,23.00
2022-11-16T01:12:55.798Z,20.20
2022-11-16T01:15:26.970Z,18.90
2022-11-16T01:17:59.298Z,23.70
2022-11-16T01:20:30.686Z,22.30
2022-11-16T01:22:59.199Z,17.70
2022-11-16T01:25:27.844Z,20.00
2022-11-16T01:27:58.886Z,20.70
2022-11-16T01:30:40.524Z,19.30
2022-11-16T01:33:12.079Z,15.50
2022-11-16T01:35:45.055Z,18.50
2022-11-16T01:38:18.021Z,20.80
2022-11-16T01:40:55.385Z,14.70
2022-11-16T01:43:27.860Z,18.30
2022-11-16T01:46:02.777Z,15.10
2022-11-16T01:48:34.455Z,18.10
2022-11-16T01:51:04.072Z,17.20
2022-11-16T01:53:37.482Z,14.10
2022-11-16T01:56:10.754Z,17.50
2022-11-16T01:58:52.818Z,14.60
2022-11-16T02:01:38.911Z,16.60
2022-11-16T02:04:10.030Z,13.60
2022-11-16T02:07:04.343Z,13.70
2022-11-16T02:09:57.864Z,18.90
2022-11-16T02:13:01.599Z,14.40
2022-11-16T02:15:43.355Z,15.00
2022-11-16T02:18:31.447Z,10.50
2022-11-16T02:21:24.695Z,17.60
2022-11-16T02:24:14.596Z,15.20
2022-11-16T02:27:05.717Z,14.70
2022-11-16T02:29:37.802Z,13.50
2022-11-16T02:32:12.788Z,13.70
2022-11-16T02:34:47.798Z,16.20
2022-11-16T02:37:21.155Z,18.80
2022-11-16T02:39:59.484Z,16.90
2022-11-16T02:45:04.321Z,12.60
2022-11-16T02:47:54.503Z,15.00
2022-11-16T02:50:26.038Z,11.10
2022-11-16T02:52:56.312Z,12.80
2022-11-16T02:55:28.216Z,12.00
2022-11-16T02:58:00.340Z,12.70
2022-11-16T03:00:43.144Z,13.40
2022-11-16T03:05:55.597Z,13.80
2022-11-16T03:08:29.946Z,12.20
2022-11-16T03:11:22.168Z,14.50
2022-11-16T03:13:57.189Z,12.10
2022-11-16T03:16:36.172Z,13.40
2022-11-16T03:19:12.823Z,14.90
2022-11-16T03:21:47.527Z,15.40
2022-11-16T03:24:19.243Z,9.80
2022-11-16T03:26:56.381Z,12.00
2022-11-16T03:29:33.179Z,15.80
2022-11-16T03:32:12.527Z,13.80
2022-11-16T03:34:45.573Z,17.00
2022-11-16T03:37:14.815Z,15.80
2022-11-16T03:39:44.450Z,14.00
2022-11-16T03:42:14.254Z,16.30
2022-11-16T03:44:47.142Z,14.00
2022-11-16T03:47:16.035Z,11.80
2022-11-16T03:49:46.023Z,15.30
2022-11-16T03:52:17.299Z,19.40
2022-11-16T03:54:45.720Z,17.50
2022-11-16T03:57:18.210Z,16.80
2022-11-16T03:59:54.879Z,14.00
2022-11-16T04:02:23.290Z,16.10
2022-11-16T04:05:12.725Z,20.90
2022-11-16T04:08:01.506Z,19.30
2022-11-16T04:10:50.863Z,11.60
2022-11-16T04:13:44.561Z,14.30
2022-11-16T04:16:31.134Z,12.20
2022-11-16T04:19:19.386Z,15.60
2022-11-16T04:22:12.399Z,17.30
2022-11-16T04:24:45.265Z,15.20
2022-11-16T04:27:34.202Z,15.10
2022-11-16T04:30:05.239Z,17.40
2022-11-16T04:32:53.214Z,21.70
2022-11-16T04:35:40.545Z,15.40
2022-11-16T04:38:09.124Z,17.80
2022-11-16T04:40:38.618Z,13.70
2022-11-16T04:43:07.272Z,18.90
2022-11-16T04:45:59.749Z,19.70
2022-11-16T04:48:50.339Z,20.90
2022-11-16T04:51:19.306Z,16.30
2022-11-16T04:53:51.404Z,21.00
2022-11-16T04:56:24.087Z,22.50
2022-11-16T04:58:52.981Z,16.30
2022-11-16T05:01:37.812Z,16.50
2022-11-16T05:04:10.257Z,11.70
2022-11-16T05:06:39.647Z,20.30
2022-11-16T05:09:08.684Z,24.10
2022-11-16T05:11:46.224Z,23.60
2022-11-16T05:14:16.811Z,25.60
2022-11-16T05:16:45.739Z,24.20
2022-11-16T05:19:32.472Z,23.70
2022-11-16T05:22:10.428Z,24.00
2022-11-16T05:24:39.873Z,12.30
2022-11-16T05:27:11.267Z,22.10
2022-11-16T05:29:40.681Z,25.60
2022-11-16T05:32:12.127Z,19.50
2022-11-16T05:34:44.605Z,19.40
2022-11-16T05:37:13.937Z,25.80
2022-11-16T05:39:47.275Z,27.80
2022-11-16T05:42:17.217Z,24.40
2022-11-16T05:44:47.174Z,24.80
2022-11-16T05:47:20.878Z,25.40
2022-11-16T05:49:56.595Z,22.40
2022-11-16T05:52:26.094Z,27.00
2022-11-16T05:54:54.650Z,25.20
2022-11-16T05:57:26.026Z,27.40
2022-11-16T05:59:54.735Z,23.40
2022-11-16T06:02:28.562Z,16.20
2022-11-16T06:04:57.452Z,21.50
2022-11-16T06:07:29.183Z,27.60
2022-11-16T06:09:58.111Z,28.90
2022-11-16T06:12:30.275Z,19.10
2022-11-16T06:15:08.999Z,23.20
2022-11-16T06:17:41.162Z,23.80
2022-11-16T06:20:14.777Z,27.20
2022-11-16T06:22:43.266Z,27.70
2022-11-16T06:25:12.677Z,19.10
2022-11-16T06:27:43.854Z,23.70
2022-11-16T06:30:14.300Z,11.30
2022-11-16T06:32:47.692Z,25.80
2022-11-16T06:35:17.041Z,27.50
2022-11-16T06:37:45.909Z,26.10
2022-11-16T06:40:20.275Z,27.00
2022-11-16T06:42:53.688Z,25.60
2022-11-16T06:45:23.051Z,21.80
2022-11-16T06:47:53.587Z,18.20
2022-11-16T06:50:22.864Z,20.60
2022-11-16T06:52:55.192Z,21.60
2022-11-16T06:55:24.740Z,15.60
2022-11-16T06:57:54.009Z,21.60
2022-11-16T07:00:23.161Z,22.70
2022-11-16T07:02:54.435Z,16.90
2022-11-16T07:05:24.402Z,19.10
2022-11-16T07:07:56.965Z,18.50
2022-11-16T07:10:26.510Z,26.80
2022-11-16T07:12:55.692Z,31.00
2022-11-16T07:15:24.702Z,23.30
2022-11-16T07:17:56.427Z,26.60
2022-11-16T07:20:25.194Z,18.80
2022-11-16T07:22:53.765Z,19.30
2022-11-16T07:25:22.172Z,14.30
2022-11-16T07:27:52.133Z,17.90
2022-11-16T07:30:20.941Z,22.10
2022-11-16T07:32:59.893Z,23.20
2022-11-16T07:35:47.853Z,20.80
2022-11-16T07:38:18.303Z,18.20
2022-11-16T07:40:51.896Z,23.00
2022-11-16T07:43:22.830Z,23.60
2022-11-16T07:46:47.028Z,15.70
2022-11-16T07:49:19.531Z,20.40
2022-11-16T07:51:57.100Z,19.00
2022-11-16T07:54:36.890Z,19.30
2022-11-16T07:57:05.882Z,23.40
2022-11-16T07:59:34.865Z,21.80
2022-11-16T08:02:04.400Z,20.00
2022-11-16T08:04:32.981Z,18.50
2022-11-16T08:07:01.661Z,23.00
2022-11-16T08:09:37.457Z,23.20
2022-11-16T08:12:06.731Z,20.00
2022-11-16T08:14:38.560Z,21.00
2022-11-16T08:17:07.804Z,21.00
2022-11-16T08:19:36.312Z,13.80
2022-11-16T08:22:04.659Z,14.00
2022-11-16T08:24:34.303Z,18.10
2022-11-16T08:27:02.824Z,22.80
2022-11-16T08:29:31.639Z,19.80
2022-11-16T08:32:00.455Z,19.00
2022-11-16T08:34:28.967Z,21.10
2022-11-16T08:37:00.220Z,27.90
2022-11-16T08:39:40.620Z,18.00
2022-11-16T08:42:13.307Z,12.40
2022-11-16T08:44:46.674Z,19.80
2022-11-16T08:47:20.473Z,17.60
2022-11-16T08:50:00.909Z,23.40
2022-11-16T08:52:33.809Z,25.40
2022-11-16T08:55:07.434Z,17.30
2022-11-16T08:57:36.142Z,22.70
2022-11-16T09:00:10.772Z,22.40
2022-11-16T09:02:41.763Z,16.90
2022-11-16T09:05:20.111Z,19.10
2022-11-16T09:07:48.833Z,17.90
2022-11-16T09:10:22.439Z,19.50
2022-11-16T09:12:52.861Z,20.00
2022-11-16T09:15:22.831Z,14.50
2022-11-16T09:17:54.429Z,22.50
2022-11-16T09:20:23.180Z,22.80
2022-11-16T09:22:54.354Z,9.10
2022-11-16T09:25:22.958Z,16.30
2022-11-16T09:27:54.265Z,12.60
2022-11-16T09:30:22.828Z,15.50
2022-11-16T09:32:52.918Z,16.50
2022-11-16T09:35:21.431Z,14.20
2022-11-16T09:37:49.850Z,15.80
2022-11-16T09:40:21.559Z,10.90
2022-11-16T09:43:00.965Z,13.90
2022-11-16T09:45:38.762Z,6.60
2022-11-16T09:48:16.221Z,12.90
2022-11-16T09:51:02.401Z,11.70
2022-11-16T09:53:38.583Z,10.80
2022-11-16T09:56:10.786Z,12.90
2022-11-16T09:58:48.892Z,11.90
2022-11-16T10:01:36.786Z,12.20
2022-11-16T10:04:11.340Z,7.50
2022-11-16T10:06:53.669Z,8.60
2022-11-16T10:09:23.801Z,9.00
2022-11-16T10:12:18.521Z,9.60
2022-11-16T10:15:12.670Z,8.40
2022-11-16T10:18:17.177Z,6.00
2022-11-16T10:20:54.036Z,8.60
2022-11-16T10:23:34.525Z,8.60
2022-11-16T10:26:26.077Z,5.80
2022-11-16T10:29:14.862Z,8.30
2022-11-16T10:32:08.036Z,5.40
2022-11-16T10:34:49.190Z,11.00
2022-11-16T10:37:18.200Z,10.50
2022-11-16T10:39:49.174Z,7.00
2022-11-16T10:42:23.138Z,10.20
2022-11-16T10:44:58.138Z,8.20
2022-11-16T10:47:41.557Z,8.80
2022-11-16T10:50:31.911Z,6.80
2022-11-16T10:53:00.938Z,6.90
2022-11-16T10:55:30.502Z,8.40
2022-11-16T10:58:03.677Z,9.40
2022-11-16T11:00:42.385Z,7.10
2022-11-16T11:03:14.680Z,8.00
2022-11-16T11:05:54.127Z,11.40
2022-11-16T11:08:30.324Z,9.90
2022-11-16T11:11:02.632Z,7.50
2022-11-16T11:13:34.141Z,10.70
2022-11-16T11:16:19.061Z,5.30
2022-11-16T11:18:51.241Z,7.60
2022-11-16T11:21:25.788Z,8.10
2022-11-16T11:24:06.142Z,6.10
2022-11-16T11:26:52.061Z,5.50
2022-11-16T11:29:25.991Z,9.20
2022-11-16T11:31:58.498Z,5.50
2022-11-16T11:34:31.144Z,6.70
2022-11-16T11:37:03.330Z,8.00
2022-11-16T11:39:36.867Z,6.50
2022-11-16T11:42:20.455Z,6.20
2022-11-16T11:44:57.404Z,4.30
2022-11-16T11:50:43.584Z,5.60
2022-11-16T11:53:23.903Z,5.50
2022-11-16T11:55:57.712Z,4.10
2022-11-16T11:58:33.615Z,5.20
2022-11-16T12:01:25.062Z,5.50
2022-11-16T12:04:38.144Z,3.80
2022-11-16T12:07:19.966Z,3.20
2022-11-16T12:09:54.918Z,6.80
2022-11-16T12:12:37.214Z,5.90
2022-11-16T12:15:24.968Z,6.30
2022-11-16T12:18:04.383Z,3.40
2022-11-16T12:20:42.165Z,3.50
2022-11-16T12:23:31.635Z,3.80
2022-11-16T12:26:07.312Z,5.30
2022-11-16T12:28:51.497Z,3.10
2022-11-16T12:31:43.163Z,3.00
2022-11-16T12:34:20.138Z,3.10
2022-11-16T12:36:56.847Z,1.80
2022-11-16T12:39:33.701Z,2.30
2022-11-16T12:42:16.207Z,1.60
2022-11-16T12:45:03.961Z,3.90
2022-11-16T12:47:45.641Z,1.90
2022-11-16T12:50:36.161Z,4.40
2022-11-16T12:53:21.838Z,4.00
2022-11-16T12:56:02.228Z,5.30
2022-11-16T12:58:46.618Z,2.30
2022-11-16T13:01:37.702Z,2.80
2022-11-16T13:04:13.013Z,1.70
2022-11-16T13:06:49.214Z,3.00
2022-11-16T13:09:21.387Z,2.10
2022-11-16T13:11:55.549Z,1.40
2022-11-16T13:14:28.256Z,3.50
2022-11-16T13:17:05.216Z,2.00
2022-11-16T13:19:41.728Z,0.80
2022-11-16T13:22:17.552Z,1.80
2022-11-16T13:24:53.109Z,0.80
2022-11-16T13:27:31.909Z,3.00
2022-11-16T13:30:14.115Z,0.90
2022-11-16T13:33:01.332Z,2.90
2022-11-16T13:35:33.114Z,2.30
2022-11-16T13:38:01.603Z,5.00
2022-11-16T13:40:32.580Z,3.20
2022-11-16T13:43:05.465Z,3.50
2022-11-16T13:45:38.616Z,3.80
2022-11-16T13:48:23.864Z,3.60
2022-11-16T13:51:03.575Z,2.70
2022-11-16T13:54:43.242Z,2.10
2022-11-16T13:56:29.217Z,2.70
2022-11-16T13:59:00.462Z,1.50
2022-11-16T14:01:58.892Z,2.90
2022-11-16T14:04:58.562Z,2.50
2022-11-16T14:07:42.310Z,2.50
2022-11-16T14:10:12.013Z,3.30
2022-11-16T14:12:57.915Z,2.20
2022-11-16T14:15:37.343Z,3.30
2022-11-16T14:18:36.479Z,3.90
2022-11-16T14:21:23.965Z,3.20
2022-11-16T14:24:11.738Z,2.40
2022-11-16T14:27:07.111Z,3.80
2022-11-16T14:29:48.702Z,2.40
2022-11-16T14:32:23.566Z,4.30
2022-11-16T14:34:56.457Z,2.00
2022-11-16T14:37:33.038Z,6.30
2022-11-16T14:40:06.902Z,6.10
2022-11-16T14:43:09.507Z,2.60
2022-11-16T14:45:40.037Z,1.10
2022-11-16T14:48:16.789Z,3.00
2022-11-16T14:50:58.117Z,3.60
2022-11-16T14:53:29.256Z,2.80
2022-11-16T14:56:09.337Z,3.90
2022-11-16T14:58:39.033Z,8.50
2022-11-16T15:01:14.356Z,5.00
2022-11-16T15:03:57.055Z,5.70
2022-11-16T15:06:33.194Z,4.70
2022-11-16T15:09:14.392Z,8.30
2022-11-16T15:12:12.141Z,6.40
2022-11-16T15:14:50.770Z,5.80
2022-11-16T15:17:22.524Z,4.90
2022-11-16T15:19:59.329Z,5.70
2022-11-16T15:22:33.830Z,3.50
2022-11-16T15:25:26.574Z,7.70
2022-11-16T15:28:00.976Z,2.90
2022-11-16T15:30:34.703Z,4.40
2022-11-16T15:33:11.941Z,2.50
2022-11-16T15:35:45.161Z,4.10
2022-11-16T15:38:24.997Z,4.90
2022-11-16T15:40:58.332Z,5.70
2022-11-16T15:43:32.277Z,5.30
2022-11-16T15:46:02.420Z,5.10
2022-11-16T15:48:38.175Z,7.90
2022-11-16T15:51:08.443Z,4.50
2022-11-16T15:53:39.359Z,4.90
2022-11-16T15:56:13.689Z,6.10
2022-11-16T15:58:43.065Z,4.00
2022-11-16T16:01:13.110Z,4.50
2022-11-16T16:03:51.018Z,6.90
2022-11-16T16:06:43.540Z,8.30
2022-11-16T16:09:25.186Z,7.70
2022-11-16T16:11:55.639Z,8.70
2022-11-16T16:14:29.989Z,4.30
2022-11-16T16:17:00.457Z,3.90
2022-11-16T16:19:37.087Z,4.20
2022-11-16T16:22:18.271Z,3.70
2022-11-16T16:24:47.063Z,3.10
2022-11-16T16:27:22.301Z,2.30
2022-11-16T16:29:53.484Z,5.60
2022-11-16T16:32:27.491Z,3.40
2022-11-16T16:35:01.844Z,5.60
2022-11-16T16:37:32.234Z,5.00
2022-11-16T16:40:04.002Z,5.70
2022-11-16T16:42:32.724Z,5.00
2022-11-16T16:45:01.718Z,3.80
2022-11-16T16:47:32.059Z,4.80
2022-11-16T16:50:02.551Z,3.60
2022-11-16T16:52:33.914Z,3.30
2022-11-16T16:55:02.873Z,3.80
2022-11-16T16:57:31.647Z,2.80
2022-11-16T17:00:05.021Z,2.90
2022-11-16T17:02:36.947Z,3.50
2022-11-16T17:05:06.618Z,3.20
2022-11-16T17:07:35.146Z,2.40
2022-11-16T17:10:04.609Z,3.70
2022-11-16T17:12:36.286Z,4.50
2022-11-16T17:15:06.309Z,4.50
2022-11-16T17:17:40.765Z,3.80
2022-11-16T17:20:12.186Z,2.00
2022-11-16T17:22:43.321Z,4.30
2022-11-16T17:25:16.154Z,3.80
2022-11-16T17:27:47.210Z,6.90
2022-11-16T17:30:19.522Z,4.40
2022-11-16T17:32:48.290Z,3.00
2022-11-16T17:35:17.179Z,6.40
2022-11-16T17:37:54.366Z,3.90
2022-11-16T17:40:22.933Z,4.20
2022-11-16T17:42:54.440Z,4.60
2022-11-16T17:45:24.790Z,3.40
2022-11-16T17:47:53.968Z,3.70
2022-11-16T17:50:22.306Z,4.40
2022-11-16T17:53:01.160Z,6.80
2022-11-16T17:55:29.784Z,3.10
2022-11-16T17:58:01.079Z,4.90
2022-11-16T18:00:32.016Z,4.30
2022-11-16T18:03:01.419Z,3.30
2022-11-16T18:05:30.741Z,2.60
2022-11-16T18:08:04.176Z,5.30
2022-11-16T18:10:39.934Z,3.50
2022-11-16T18:13:21.518Z,3.10
2022-11-16T18:15:50.345Z,1.80
2022-11-16T18:18:18.800Z,2.00
2022-11-16T18:20:50.207Z,3.40
2022-11-16T18:23:23.520Z,4.30
2022-11-16T18:25:59.385Z,4.90
2022-11-16T18:28:27.906Z,2.10
2022-11-16T18:31:04.825Z,2.70
2022-11-16T18:33:38.053Z,3.20
2022-11-16T18:36:09.391Z,6.50
2022-11-16T18:38:38.342Z,2.60
2022-11-16T18:41:19.177Z,5.20
2022-11-16T18:43:52.255Z,1.30
2022-11-16T18:46:39.467Z,2.70
2022-11-16T18:49:12.147Z,4.60
2022-11-16T18:51:52.158Z,3.50
2022-11-16T18:54:24.670Z,2.60
2022-11-16T18:56:55.830Z,6.50
2022-11-16T18:59:31.099Z,2.70
2022-11-16T19:02:08.660Z,2.50
2022-11-16T19:04:40.523Z,3.90
2022-11-16T19:07:12.607Z,2.90
2022-11-16T19:09:41.430Z,4.60
2022-11-16T19:12:13.157Z,1.90
2022-11-16T19:14:44.432Z,2.40
2022-11-16T19:17:13.060Z,2.90
2022-11-16T19:19:43.726Z,2.90
2022-11-16T19:22:15.047Z,3.50
2022-11-16T19:24:44.225Z,4.50
2022-11-16T19:27:13.311Z,3.20
2022-11-16T19:29:47.641Z,3.30
2022-11-16T19:32:17.232Z,2.10
2022-11-16T19:34:46.980Z,5.00
2022-11-16T19:37:16.588Z,4.10
2022-11-16T19:39:50.949Z,4.70
2022-11-16T19:42:19.829Z,3.70
2022-11-16T19:44:48.496Z,4.80
2022-11-16T19:47:18.404Z,1.50
2022-11-16T19:49:47.178Z,3.00
2022-11-16T19:52:18.174Z,3.50
2022-11-16T19:54:48.656Z,4.70
2022-11-16T19:57:20.127Z,4.30
2022-11-16T19:59:51.201Z,4.30
2022-11-16T20:02:20.024Z,4.50
2022-11-16T20:04:56.085Z,6.00
2022-11-16T20:07:24.723Z,5.90
2022-11-16T20:09:56.455Z,6.20
2022-11-16T20:12:26.681Z,3.90
2022-11-16T20:14:55.037Z,6.70
2022-11-16T20:17:24.042Z,7.40
2022-11-16T20:19:52.965Z,5.00
2022-11-16T20:22:21.436Z,6.40
2022-11-16T20:24:50.879Z,4.00
2022-11-16T20:27:22.409Z,6.10
2022-11-16T20:29:52.989Z,5.90
2022-11-16T20:32:21.540Z,6.80
2022-11-16T20:34:50.567Z,6.80
2022-11-16T20:37:19.356Z,7.70
2022-11-16T20:39:52.146Z,7.60
2022-11-16T20:42:20.720Z,7.80
2022-11-16T20:44:50.130Z,9.30
2022-11-16T20:47:19.225Z,10.20
2022-11-16T20:49:49.967Z,6.80
2022-11-16T20:52:18.380Z,9.40
2022-11-16T20:54:46.825Z,6.90
2022-11-16T20:57:18.380Z,10.30
2022-11-16T20:59:46.856Z,5.40
2022-11-16T21:02:16.581Z,9.20
2022-11-16T21:04:47.527Z,8.40
2022-11-16T21:07:19.593Z,8.10
2022-11-16T21:10:06.725Z,9.00
2022-11-16T21:12:53.984Z,8.90
2022-11-16T21:15:23.316Z,8.70
2022-11-16T21:17:51.699Z,8.50
2022-11-16T21:20:27.380Z,5.20
2022-11-16T21:22:59.045Z,12.10
2022-11-16T21:25:28.409Z,9.80
2022-11-16T21:27:56.906Z,10.30
2022-11-16T21:30:26.187Z,9.70
2022-11-16T21:32:54.636Z,7.20
2022-11-16T21:35:26.530Z,8.40
2022-11-16T21:37:54.951Z,10.40
2022-11-16T21:40:24.027Z,17.40
2022-11-16T21:42:52.665Z,9.10
2022-11-16T21:45:21.420Z,17.50
2022-11-16T21:47:51.456Z,13.30
2022-11-16T21:50:31.599Z,7.90
2022-11-16T21:53:04.178Z,10.20
2022-11-16T21:55:38.365Z,9.70
2022-11-16T21:58:07.184Z,8.70
2022-11-16T22:00:35.616Z,14.10
2022-11-16T22:03:04.872Z,12.60
2022-11-16T22:05:51.249Z,9.30
2022-11-16T22:08:22.356Z,6.20
2022-11-16T22:10:51.800Z,8.50
2022-11-16T22:13:20.685Z,7.50
2022-11-16T22:15:49.800Z,10.00
2022-11-16T22:18:19.389Z,7.10
2022-11-16T22:20:50.294Z,8.90
2022-11-16T22:23:22.971Z,11.60
2022-11-16T22:25:53.038Z,7.20
2022-11-16T22:28:22.207Z,4.40
2022-11-16T22:31:01.183Z,8.10
2022-11-16T22:33:34.464Z,5.40
2022-11-16T22:36:04.103Z,9.50
2022-11-16T22:38:36.209Z,4.30
2022-11-16T22:41:05.394Z,9.30
2022-11-16T22:43:35.324Z,7.30
2022-11-16T22:46:09.223Z,6.10
2022-11-16T22:48:39.172Z,4.60
2022-11-16T22:51:19.232Z,7.70
2022-11-16T22:53:53.644Z,6.30
2022-11-16T22:56:25.418Z,4.80
2022-11-16T22:58:54.874Z,5.70
2022-11-16T23:01:30.220Z,8.30
2022-11-16T23:04:04.346Z,4.00
2022-11-16T23:06:33.020Z,3.30
2022-11-16T23:09:01.736Z,5.40
2022-11-16T23:11:49.603Z,4.30
2022-11-16T23:14:36.885Z,4.30
2022-11-16T23:17:05.710Z,2.80
2022-11-16T23:19:53.423Z,3.40
2022-11-16T23:22:43.442Z,3.50
2022-11-16T23:25:31.629Z,3.30
2022-11-16T23:28:05.284Z,4.50
2022-11-16T23:30:34.786Z,5.10
2022-11-16T23:33:04.998Z,5.00
2022-11-16T23:35:33.751Z,2.90
2022-11-16T23:38:04.943Z,5.40
2022-11-16T23:40:35.179Z,3.10
2022-11-16T23:43:28.390Z,4.10
2022-11-16T23:46:00.352Z,3.60
2022-11-16T23:48:28.814Z,4.90
2022-11-16T23:50:57.365Z,5.40
2022-11-16T23:53:26.847Z,4.10
2022-11-16T23:56:05.568Z,2.80
2022-11-16T23:58:34.560Z,5.60
